Time;durP1;ratioP1;P1;durP2;ratioP2;P2;SDS_P1;SDS_P2;PMS_P1;PMS_P2;Temp;Humidity;BMP_temperature;BMP_pressure;BME280_temperature;BME280_humidity;BME280_pressure;Samples;Min_cycle;Max_cycle;Signal;HPM_P1;HPM_P2
2022/10/30 00:00:31;;;;;;;15.20;5.50;;;;;;;;;;106880;1307;22132;-84
2022/10/30 00:03:18;;;;;;;13.90;5.40;;;;;;;;;;106915;1307;22094;-84
2022/10/30 00:05:48;;;;;;;14.90;5.40;;;;;;;;;;106886;1307;22568;-84
2022/10/30 00:08:16;;;;;;;14.80;5.00;;;;;;;;;;106910;1307;22067;-83
2022/10/30 00:10:43;;;;;;;12.50;5.30;;;;;;;;;;106865;1310;21670;-84
2022/10/30 00:13:10;;;;;;;12.70;5.20;;;;;;;;;;106953;1307;22103;-84
2022/10/30 00:15:36;;;;;;;16.50;5.70;;;;;;;;;;106921;1307;22128;-84
2022/10/30 00:18:04;;;;;;;15.90;5.20;;;;;;;;;;106905;1307;22736;-85
2022/10/30 00:20:31;;;;;;;14.10;5.40;;;;;;;;;;106927;1305;22089;-85
2022/10/30 00:22:58;;;;;;;12.80;5.50;;;;;;;;;;106916;1309;22293;-85
2022/10/30 00:25:24;;;;;;;13.80;5.30;;;;;;;;;;106919;1307;22770;-84
2022/10/30 00:27:51;;;;;;;13.80;5.20;;;;;;;;;;106924;1307;21955;-84
2022/10/30 00:30:17;;;;;;;13.00;5.30;;;;;;;;;;107147;1300;22109;-85
2022/10/30 00:32:44;;;;;;;14.60;6.00;;;;;;;;;;106895;1303;22081;-84
2022/10/30 00:35:11;;;;;;;12.40;5.20;;;;;;;;;;106912;1309;22038;-85
2022/10/30 00:37:38;;;;;;;14.90;5.10;;;;;;;;;;107150;1290;22043;-84
2022/10/30 00:40:06;;;;;;;13.30;6.10;;;;;;;;;;107245;1295;22043;-85
2022/10/30 00:42:32;;;;;;;13.90;5.20;;;;;;;;;;106712;1306;22121;-85
2022/10/30 00:44:59;;;;;;;11.80;5.30;;;;;;;;;;106849;1306;22091;-85
2022/10/30 00:47:34;;;;;;;13.80;5.70;;;;;;;;;;106780;1310;22111;-83
2022/10/30 00:50:01;;;;;;;12.70;4.90;;;;;;;;;;106922;1305;22105;-85
2022/10/30 00:52:35;;;;;;;17.60;5.60;;;;;;;;;;107125;1300;22091;-84
2022/10/30 00:55:04;;;;;;;13.30;5.50;;;;;;;;;;106778;1307;22057;-84
2022/10/30 00:57:31;;;;;;;12.80;5.50;;;;;;;;;;106942;1307;22104;-84
2022/10/30 00:59:58;;;;;;;15.60;6.50;;;;;;;;;;107241;1288;22058;-84
2022/10/30 01:02:25;;;;;;;13.80;5.20;;;;;;;;;;106885;1305;22786;-84
2022/10/30 01:04:53;;;;;;;14.80;5.40;;;;;;;;;;106871;1306;22131;-84
2022/10/30 01:07:20;;;;;;;13.50;4.90;;;;;;;;;;106860;1308;22069;-84
2022/10/30 01:09:46;;;;;;;12.10;5.70;;;;;;;;;;106784;1298;22058;-84
2022/10/30 01:12:14;;;;;;;13.40;5.90;;;;;;;;;;106812;1307;22102;-84
2022/10/30 01:14:44;;;;;;;13.90;6.20;;;;;;;;;;106866;1307;22123;-84
2022/10/30 01:17:30;;;;;;;13.30;5.50;;;;;;;;;;106755;1307;22094;-85
2022/10/30 01:20:06;;;;;;;11.20;5.20;;;;;;;;;;106995;1300;22094;-84
2022/10/30 01:22:39;;;;;;;13.80;5.40;;;;;;;;;;106627;1310;21946;-84
2022/10/30 01:25:26;;;;;;;14.30;5.40;;;;;;;;;;106751;1307;22073;-85
2022/10/30 01:28:07;;;;;;;14.60;4.70;;;;;;;;;;106185;1316;22308;-84
2022/10/30 01:30:53;;;;;;;16.20;5.50;;;;;;;;;;106173;1317;22606;-84
2022/10/30 01:33:31;;;;;;;15.00;5.30;;;;;;;;;;106383;1314;22116;-84
2022/10/30 01:36:04;;;;;;;11.30;5.00;;;;;;;;;;106194;1313;22086;-84
2022/10/30 01:38:34;;;;;;;15.50;5.40;;;;;;;;;;106217;1314;22179;-84
2022/10/30 01:41:00;;;;;;;12.10;5.40;;;;;;;;;;106274;1314;21989;-84
2022/10/30 01:43:27;;;;;;;12.90;4.90;;;;;;;;;;106133;1315;22097;-84
2022/10/30 01:46:07;;;;;;;12.70;5.10;;;;;;;;;;106109;1317;22129;-84
2022/10/30 01:48:43;;;;;;;11.30;4.90;;;;;;;;;;106260;1312;22125;-84
2022/10/30 01:51:16;;;;;;;12.60;4.90;;;;;;;;;;106541;1306;21764;-84
2022/10/30 01:54:03;;;;;;;11.40;5.40;;;;;;;;;;106229;1314;22851;-84
2022/10/30 01:56:39;;;;;;;14.00;5.40;;;;;;;;;;106636;1305;22107;-84
2022/10/30 01:59:12;;;;;;;17.70;5.50;;;;;;;;;;106249;1313;22154;-85
2022/10/30 02:01:38;;;;;;;14.40;5.60;;;;;;;;;;106287;1313;22112;-84
2022/10/30 02:04:06;;;;;;;13.70;5.30;;;;;;;;;;106155;1316;22128;-85
2022/10/30 02:06:34;;;;;;;14.30;5.50;;;;;;;;;;106714;1307;22018;-84
2022/10/30 02:09:02;;;;;;;16.10;5.40;;;;;;;;;;106703;1307;22042;-84
2022/10/30 02:11:30;;;;;;;13.40;6.10;;;;;;;;;;106721;1307;22035;-84
2022/10/30 02:13:57;;;;;;;12.80;5.70;;;;;;;;;;106744;1307;22007;-84
2022/10/30 02:16:24;;;;;;;13.00;5.90;;;;;;;;;;106963;1301;22577;-84
2022/10/30 02:18:51;;;;;;;13.80;5.30;;;;;;;;;;106674;1310;22901;-85
2022/10/30 02:21:18;;;;;;;15.00;5.40;;;;;;;;;;106713;1300;22696;-84
2022/10/30 02:23:45;;;;;;;17.40;5.70;;;;;;;;;;106617;1309;22036;-84
2022/10/30 02:26:12;;;;;;;12.80;5.50;;;;;;;;;;106668;1309;22069;-84
2022/10/30 02:28:41;;;;;;;13.30;5.20;;;;;;;;;;106680;1309;22051;-84
2022/10/30 02:31:08;;;;;;;13.50;5.10;;;;;;;;;;106985;1283;22536;-84
2022/10/30 02:33:35;;;;;;;14.30;6.30;;;;;;;;;;106678;1309;21953;-84
2022/10/30 02:36:03;;;;;;;13.00;5.50;;;;;;;;;;106932;1296;22098;-84
2022/10/30 02:38:30;;;;;;;10.80;5.00;;;;;;;;;;106745;1310;22594;-84
2022/10/30 02:40:57;;;;;;;13.40;5.50;;;;;;;;;;106610;1309;22239;-84
2022/10/30 02:43:24;;;;;;;14.00;5.40;;;;;;;;;;106674;1309;22087;-85
2022/10/30 02:45:51;;;;;;;13.40;5.80;;;;;;;;;;106769;1309;22359;-84
2022/10/30 02:48:19;;;;;;;13.10;5.40;;;;;;;;;;106615;1309;22775;-85
2022/10/30 02:50:45;;;;;;;16.00;5.60;;;;;;;;;;106964;1294;22778;-83
2022/10/30 02:53:12;;;;;;;13.50;6.40;;;;;;;;;;106902;1297;22080;-84
2022/10/30 02:55:39;;;;;;;14.10;5.80;;;;;;;;;;106695;1305;22084;-84
2022/10/30 02:58:06;;;;;;;11.80;5.50;;;;;;;;;;106699;1310;22048;-85
2022/10/30 03:00:32;;;;;;;14.20;6.10;;;;;;;;;;106628;1310;22069;-85
2022/10/30 03:02:59;;;;;;;14.60;5.90;;;;;;;;;;106702;1309;21974;-83
2022/10/30 03:05:26;;;;;;;16.60;5.90;;;;;;;;;;106676;1309;22058;-84
2022/10/30 03:07:53;;;;;;;11.80;5.80;;;;;;;;;;106681;1309;22061;-84
2022/10/30 03:10:20;;;;;;;15.60;5.50;;;;;;;;;;106716;1307;22793;-85
2022/10/30 03:12:47;;;;;;;16.20;6.00;;;;;;;;;;106949;1299;22711;-84
2022/10/30 03:15:15;;;;;;;12.70;5.80;;;;;;;;;;106636;1296;22063;-85
2022/10/30 03:17:43;;;;;;;13.40;5.70;;;;;;;;;;106674;1309;22688;-85
2022/10/30 03:20:11;;;;;;;15.60;6.20;;;;;;;;;;106673;1310;22074;-84
2022/10/30 03:22:39;;;;;;;16.10;6.30;;;;;;;;;;106696;1309;22085;-84
2022/10/30 03:25:07;;;;;;;11.30;5.60;;;;;;;;;;106660;1309;22105;-84
2022/10/30 03:27:35;;;;;;;14.00;6.00;;;;;;;;;;106727;1302;22102;-85
2022/10/30 03:30:02;;;;;;;13.20;5.90;;;;;;;;;;106690;1309;22524;-84
2022/10/30 03:32:30;;;;;;;13.20;5.80;;;;;;;;;;106705;1309;22059;-85
2022/10/30 03:34:59;;;;;;;13.00;5.80;;;;;;;;;;106667;1309;22046;-84
2022/10/30 03:37:27;;;;;;;13.80;5.70;;;;;;;;;;106722;1302;22080;-85
2022/10/30 03:39:54;;;;;;;15.80;6.30;;;;;;;;;;106679;1310;22143;-83
2022/10/30 03:42:22;;;;;;;13.90;6.30;;;;;;;;;;106720;1302;22002;-85
2022/10/30 03:44:49;;;;;;;17.60;6.70;;;;;;;;;;106577;1303;22771;-84
2022/10/30 03:47:17;;;;;;;13.40;6.00;;;;;;;;;;106654;1309;22090;-84
2022/10/30 03:49:45;;;;;;;14.90;6.70;;;;;;;;;;106641;1310;22599;-84
2022/10/30 03:52:14;;;;;;;13.50;5.70;;;;;;;;;;106611;1304;22709;-84
2022/10/30 03:54:41;;;;;;;14.00;6.10;;;;;;;;;;106711;1308;22129;-84
2022/10/30 03:57:09;;;;;;;12.90;6.10;;;;;;;;;;106679;1309;22063;-84
2022/10/30 03:59:42;;;;;;;13.70;5.70;;;;;;;;;;106926;1288;22778;-84
2022/10/30 04:02:38;;;;;;;14.20;6.00;;;;;;;;;;106716;1304;22018;-84
2022/10/30 04:05:05;;;;;;;12.70;6.10;;;;;;;;;;106765;1302;22079;-84
2022/10/30 04:07:32;;;;;;;12.00;5.60;;;;;;;;;;106674;1309;22091;-84
2022/10/30 04:10:02;;;;;;;15.30;6.30;;;;;;;;;;106637;1309;22117;-84
2022/10/30 04:12:31;;;;;;;16.40;6.70;;;;;;;;;;106715;1309;22782;-85
2022/10/30 04:15:00;;;;;;;14.80;6.30;;;;;;;;;;106581;1301;22126;-86
2022/10/30 04:17:29;;;;;;;13.70;6.30;;;;;;;;;;106636;1295;21939;-84
2022/10/30 04:19:59;;;;;;;14.20;5.90;;;;;;;;;;106640;1309;22786;-84
2022/10/30 04:22:29;;;;;;;15.30;6.60;;;;;;;;;;106581;1303;22057;-85
2022/10/30 04:24:58;;;;;;;16.20;6.00;;;;;;;;;;106654;1309;22107;-84
2022/10/30 04:27:27;;;;;;;13.50;5.90;;;;;;;;;;106604;1310;22120;-84
2022/10/30 04:29:57;;;;;;;14.30;6.70;;;;;;;;;;106689;1308;22045;-84
2022/10/30 04:32:25;;;;;;;13.20;6.10;;;;;;;;;;106601;1309;22121;-84
2022/10/30 04:34:56;;;;;;;13.10;6.00;;;;;;;;;;106644;1303;22440;-82
2022/10/30 04:37:26;;;;;;;15.90;6.30;;;;;;;;;;106642;1309;22089;-85
2022/10/30 04:39:55;;;;;;;13.00;6.40;;;;;;;;;;106660;1309;22779;-85
2022/10/30 04:42:26;;;;;;;13.70;6.10;;;;;;;;;;106591;1309;22817;-85
2022/10/30 04:44:55;;;;;;;13.30;6.20;;;;;;;;;;106685;1309;22081;-85
2022/10/30 04:47:25;;;;;;;14.30;5.70;;;;;;;;;;106625;1309;22089;-85
2022/10/30 04:49:54;;;;;;;13.40;5.80;;;;;;;;;;106692;1308;22122;-85
2022/10/30 04:52:24;;;;;;;13.90;6.40;;;;;;;;;;106606;1309;22067;-85
2022/10/30 04:54:54;;;;;;;17.80;7.20;;;;;;;;;;106656;1309;22112;-85
2022/10/30 04:57:24;;;;;;;19.10;7.30;;;;;;;;;;106662;1309;22916;-85
2022/10/30 04:59:53;;;;;;;15.10;6.70;;;;;;;;;;106673;1309;22086;-84
2022/10/30 05:02:24;;;;;;;15.10;6.50;;;;;;;;;;106630;1310;22908;-85
2022/10/30 05:04:53;;;;;;;15.50;6.10;;;;;;;;;;106585;1309;22109;-84
2022/10/30 05:07:23;;;;;;;17.80;6.50;;;;;;;;;;106602;1305;22067;-85
2022/10/30 05:16:51;;;;;;;13.00;5.30;;;;;;;;;;100335;1347;545443;-90
2022/10/30 05:19:17;;;;;;;12.80;5.50;;;;;;;;;;102688;1317;25273;-85
2022/10/30 05:21:50;;;;;;;12.50;5.60;;;;;;;;;;102441;1314;22578;-91
2022/10/30 05:24:17;;;;;;;14.50;6.40;;;;;;;;;;102443;1307;22500;-87
2022/10/30 05:26:45;;;;;;;15.30;5.70;;;;;;;;;;103220;1310;25707;-86
2022/10/30 05:29:12;;;;;;;13.60;5.60;;;;;;;;;;103483;1307;22699;-89
2022/10/30 05:31:39;;;;;;;15.50;5.70;;;;;;;;;;103516;1304;171152;-86
2022/10/30 05:34:35;;;;;;;12.90;6.00;;;;;;;;;;103583;1304;22479;-86
2022/10/30 05:37:02;;;;;;;12.90;5.90;;;;;;;;;;103600;1304;22581;-89
2022/10/30 05:39:29;;;;;;;13.50;6.20;;;;;;;;;;103501;1304;22466;-87
2022/10/30 05:41:57;;;;;;;12.60;6.30;;;;;;;;;;103545;1305;22551;-92
2022/10/30 05:44:24;;;;;;;13.90;5.80;;;;;;;;;;103616;1304;22465;-85
2022/10/30 05:46:51;;;;;;;14.90;7.50;;;;;;;;;;103449;1304;22583;-87
2022/10/30 05:49:24;;;;;;;14.10;5.90;;;;;;;;;;103592;1304;24462;-86
2022/10/30 05:51:51;;;;;;;13.60;5.90;;;;;;;;;;103930;1288;22458;-89
2022/10/30 05:54:18;;;;;;;14.30;5.60;;;;;;;;;;103780;1298;24432;-89
2022/10/30 05:56:56;;;;;;;16.50;6.20;;;;;;;;;;103762;1304;22461;-88
2022/10/30 05:59:23;;;;;;;12.70;6.00;;;;;;;;;;103715;1304;22656;-84
2022/10/30 06:01:50;;;;;;;15.70;6.60;;;;;;;;;;103880;1304;22466;-91
2022/10/30 06:04:17;;;;;;;13.70;6.40;;;;;;;;;;103605;1303;22469;-88
2022/10/30 06:06:44;;;;;;;13.40;6.40;;;;;;;;;;103498;1302;25283;-85
2022/10/30 06:09:11;;;;;;;12.30;6.10;;;;;;;;;;103733;1302;22478;-87
2022/10/30 06:12:16;;;;;;;13.00;6.00;;;;;;;;;;103427;1307;25253;-85
2022/10/30 06:15:00;;;;;;;14.50;6.10;;;;;;;;;;103334;1308;22473;-91
2022/10/30 06:17:29;;;;;;;15.30;6.70;;;;;;;;;;103228;1309;22649;-89
2022/10/30 06:20:15;;;;;;;14.20;6.30;;;;;;;;;;103369;1301;22698;-88
2022/10/30 06:22:56;;;;;;;13.00;7.20;;;;;;;;;;103308;1309;22466;-89
2022/10/30 06:25:27;;;;;;;15.20;6.40;;;;;;;;;;103331;1299;22469;-88
2022/10/30 06:28:05;;;;;;;14.30;6.50;;;;;;;;;;103390;1308;22478;-85
2022/10/30 06:30:32;;;;;;;13.20;7.00;;;;;;;;;;103224;1301;24384;-90
2022/10/30 06:33:01;;;;;;;12.10;6.00;;;;;;;;;;103144;1288;22472;-91
2022/10/30 06:35:29;;;;;;;13.20;6.70;;;;;;;;;;103456;1308;22458;-91
2022/10/30 06:37:58;;;;;;;18.90;6.50;;;;;;;;;;103358;1294;25348;-86
2022/10/30 06:40:26;;;;;;;15.50;6.60;;;;;;;;;;103309;1300;24240;-86
2022/10/30 06:43:12;;;;;;;13.60;6.90;;;;;;;;;;103280;1303;22468;-88
2022/10/30 06:45:43;;;;;;;15.80;7.10;;;;;;;;;;103516;1293;22576;-85
2022/10/30 06:48:09;;;;;;;15.90;7.70;;;;;;;;;;103544;1304;23852;-89
2022/10/30 06:50:40;;;;;;;17.30;8.00;;;;;;;;;;103544;1304;24744;-86
2022/10/30 06:53:07;;;;;;;17.40;8.30;;;;;;;;;;103685;1301;24674;-87
2022/10/30 06:55:34;;;;;;;15.60;7.20;;;;;;;;;;103701;1299;22475;-85
2022/10/30 06:58:39;;;;;;;16.40;8.00;;;;;;;;;;103618;1303;24004;-86
2022/10/30 07:01:25;;;;;;;13.80;7.90;;;;;;;;;;103690;1303;26585;-84
2022/10/30 07:04:05;;;;;;;16.40;8.10;;;;;;;;;;103504;1303;22479;-85
2022/10/30 07:06:32;;;;;;;19.90;10.00;;;;;;;;;;103530;1291;25329;-89
2022/10/30 07:08:59;;;;;;;21.00;9.40;;;;;;;;;;103755;1298;22467;-91
2022/10/30 07:11:26;;;;;;;14.80;6.80;;;;;;;;;;103771;1295;22712;-88
2022/10/30 07:14:11;;;;;;;16.30;7.00;;;;;;;;;;103748;1304;23726;-89
2022/10/30 07:17:07;;;;;;;16.10;7.30;;;;;;;;;;103350;1309;25186;-88
2022/10/30 07:19:34;;;;;;;14.90;6.80;;;;;;;;;;103527;1303;22483;-87
2022/10/30 07:22:01;;;;;;;13.60;6.50;;;;;;;;;;103479;1303;25438;-88
2022/10/30 07:24:28;;;;;;;14.50;6.50;;;;;;;;;;103732;1298;22621;-89
2022/10/30 07:27:10;;;;;;;15.50;6.20;;;;;;;;;;103806;1303;22469;-89
2022/10/30 07:29:57;;;;;;;20.80;7.40;;;;;;;;;;103490;1304;24410;-88
2022/10/30 07:32:33;;;;;;;21.60;8.00;;;;;;;;;;103770;1304;24410;-84
2022/10/30 07:35:19;;;;;;;15.20;6.90;;;;;;;;;;103647;1304;22496;-84
2022/10/30 07:38:11;;;;;;;17.10;7.40;;;;;;;;;;103737;1304;21771;-84
2022/10/30 07:40:56;;;;;;;15.10;6.90;;;;;;;;;;103576;1304;25281;-85
2022/10/30 07:43:43;;;;;;;13.40;6.00;;;;;;;;;;103793;1290;22601;-87
2022/10/30 07:46:35;;;;;;;11.80;5.80;;;;;;;;;;103792;1302;25354;-88
2022/10/30 07:49:34;;;;;;;12.90;5.40;;;;;;;;;;103623;1301;22714;-88
2022/10/30 07:52:05;;;;;;;11.50;5.60;;;;;;;;;;103549;1292;22614;-92
2022/10/30 07:54:32;;;;;;;13.10;6.70;;;;;;;;;;103752;1285;24037;-89
2022/10/30 07:57:08;;;;;;;12.60;5.40;;;;;;;;;;103815;1283;22586;-89
2022/10/30 07:59:54;;;;;;;15.20;6.00;;;;;;;;;;103757;1276;22582;-86
2022/10/30 08:02:40;;;;;;;11.40;6.90;;;;;;;;;;103796;1303;22597;-91
2022/10/30 08:05:25;;;;;;;15.30;5.70;;;;;;;;;;107227;1296;22072;-85
2022/10/30 08:08:06;;;;;;;12.30;5.40;;;;;;;;;;106985;1303;22327;-85
2022/10/30 08:10:33;;;;;;;15.70;5.90;;;;;;;;;;106939;1303;22127;-85
2022/10/30 08:13:00;;;;;;;14.80;6.40;;;;;;;;;;107133;1304;22056;-84
2022/10/30 08:15:27;;;;;;;12.60;5.50;;;;;;;;;;106894;1304;22071;-85
2022/10/30 08:17:57;;;;;;;12.10;5.00;;;;;;;;;;107128;1304;22778;-84
2022/10/30 08:20:25;;;;;;;14.80;5.40;;;;;;;;;;106920;1304;21974;-85
2022/10/30 08:22:54;;;;;;;20.10;5.60;;;;;;;;;;107273;1296;22054;-85
2022/10/30 08:25:26;;;;;;;17.60;5.80;;;;;;;;;;106916;1304;22088;-85
2022/10/30 08:27:58;;;;;;;18.30;6.40;;;;;;;;;;107124;1304;22536;-85
2022/10/30 08:30:28;;;;;;;14.30;5.40;;;;;;;;;;107051;1304;22244;-84
2022/10/30 08:33:03;;;;;;;13.60;4.60;;;;;;;;;;106974;1303;22755;-85
2022/10/30 08:35:55;;;;;;;12.70;4.50;;;;;;;;;;107103;1304;22101;-85
2022/10/30 08:38:22;;;;;;;10.40;4.80;;;;;;;;;;107076;1304;22032;-85
2022/10/30 08:41:09;;;;;;;12.60;5.10;;;;;;;;;;107237;1297;22141;-85
2022/10/30 08:43:40;;;;;;;14.20;5.10;;;;;;;;;;107094;1304;22844;-85
2022/10/30 08:46:07;;;;;;;13.20;4.90;;;;;;;;;;106967;1304;22086;-86
2022/10/30 08:48:34;;;;;;;10.60;4.50;;;;;;;;;;107270;1296;22042;-85
2022/10/30 08:51:03;;;;;;;12.10;4.20;;;;;;;;;;107081;1304;22679;-85
2022/10/30 08:53:36;;;;;;;10.80;4.20;;;;;;;;;;107110;1304;22088;-85
2022/10/30 08:56:09;;;;;;;10.00;4.20;;;;;;;;;;107099;1294;22107;-86
2022/10/30 08:58:46;;;;;;;13.40;3.80;;;;;;;;;;107096;1304;22740;-84
2022/10/30 09:01:13;;;;;;;11.50;3.80;;;;;;;;;;107310;1282;22221;-85
2022/10/30 09:04:02;;;;;;;9.70;3.90;;;;;;;;;;107007;1304;22091;-85
2022/10/30 09:06:50;;;;;;;11.70;4.00;;;;;;;;;;106894;1303;22035;-85
2022/10/30 09:09:36;;;;;;;12.40;4.10;;;;;;;;;;106964;1304;22088;-85
2022/10/30 09:12:03;;;;;;;11.10;4.00;;;;;;;;;;107140;1284;22128;-85
2022/10/30 09:14:34;;;;;;;14.80;4.60;;;;;;;;;;106960;1297;22393;-85
2022/10/30 09:17:00;;;;;;;13.00;4.80;;;;;;;;;;106949;1298;22870;-86
2022/10/30 09:19:28;;;;;;;9.10;4.00;;;;;;;;;;107052;1304;22068;-86
2022/10/30 09:21:57;;;;;;;14.00;4.50;;;;;;;;;;107011;1305;22067;-86
2022/10/30 09:24:23;;;;;;;10.90;4.30;;;;;;;;;;106988;1305;22107;-86
2022/10/30 09:26:50;;;;;;;12.30;4.30;;;;;;;;;;107068;1304;22061;-86
2022/10/30 09:29:21;;;;;;;12.00;4.20;;;;;;;;;;106967;1298;22938;-85
2022/10/30 09:32:00;;;;;;;11.50;4.70;;;;;;;;;;107015;1304;22814;-85
2022/10/30 09:34:30;;;;;;;12.00;4.00;;;;;;;;;;107184;1291;22161;-86
2022/10/30 09:37:19;;;;;;;14.90;4.80;;;;;;;;;;107089;1290;22086;-87
2022/10/30 09:39:48;;;;;;;11.60;4.40;;;;;;;;;;107280;1292;22816;-86
2022/10/30 09:42:39;;;;;;;13.00;5.00;;;;;;;;;;106976;1304;22058;-86
2022/10/30 09:45:27;;;;;;;10.80;4.20;;;;;;;;;;106971;1305;22191;-86
2022/10/30 09:48:00;;;;;;;12.70;5.10;;;;;;;;;;106959;1306;22047;-85
2022/10/30 09:50:28;;;;;;;15.00;4.70;;;;;;;;;;106969;1305;23056;-86
2022/10/30 09:53:15;;;;;;;12.10;4.50;;;;;;;;;;107034;1298;22089;-90
2022/10/30 09:56:03;;;;;;;15.30;4.30;;;;;;;;;;107045;1304;22809;-86
2022/10/30 09:58:48;;;;;;;13.80;4.20;;;;;;;;;;106957;1304;22124;-86
2022/10/30 10:01:15;;;;;;;12.10;3.70;;;;;;;;;;107044;1304;22975;-86
2022/10/30 10:03:55;;;;;;;11.80;3.90;;;;;;;;;;106992;1304;22133;-85
2022/10/30 10:07:01;;;;;;;13.80;4.30;;;;;;;;;;107065;1291;21985;-86
2022/10/30 10:09:50;;;;;;;10.80;3.90;;;;;;;;;;106962;1306;21970;-85
2022/10/30 10:12:39;;;;;;;14.40;3.80;;;;;;;;;;107009;1303;22134;-88
2022/10/30 10:15:22;;;;;;;12.60;4.50;;;;;;;;;;106992;1304;21641;-87
2022/10/30 10:17:50;;;;;;;14.30;4.10;;;;;;;;;;106996;1305;22075;-88
2022/10/30 10:20:40;;;;;;;12.80;4.00;;;;;;;;;;107308;1297;22029;-88
2022/10/30 10:23:18;;;;;;;12.20;3.70;;;;;;;;;;107073;1292;22268;-87
2022/10/30 10:25:50;;;;;;;9.40;3.60;;;;;;;;;;106956;1307;22141;-88
2022/10/30 10:28:34;;;;;;;11.00;3.60;;;;;;;;;;106851;1307;22046;-88
2022/10/30 10:31:23;;;;;;;11.90;3.30;;;;;;;;;;107121;1296;22023;-88
2022/10/30 10:34:05;;;;;;;11.50;3.40;;;;;;;;;;106920;1307;22041;-87
2022/10/30 10:36:55;;;;;;;10.80;3.40;;;;;;;;;;106975;1302;22148;-88
2022/10/30 10:39:42;;;;;;;13.80;3.80;;;;;;;;;;106983;1307;22081;-87
2022/10/30 10:42:15;;;;;;;12.20;3.40;;;;;;;;;;106497;1304;22370;-87
2022/10/30 10:44:52;;;;;;;11.60;3.50;;;;;;;;;;106544;1312;22132;-87
2022/10/30 10:47:39;;;;;;;11.90;3.80;;;;;;;;;;106710;1306;22111;-87
2022/10/30 10:50:14;;;;;;;11.80;3.70;;;;;;;;;;105785;1318;22121;-87
2022/10/30 10:52:46;;;;;;;9.00;3.50;;;;;;;;;;105802;1304;22242;-88
2022/10/30 10:55:15;;;;;;;10.80;3.80;;;;;;;;;;105664;1318;23193;-88
2022/10/30 10:57:42;;;;;;;10.90;3.70;;;;;;;;;;105644;1318;22869;-87
2022/10/30 11:00:14;;;;;;;11.30;3.50;;;;;;;;;;105854;1318;22127;-87
2022/10/30 11:02:44;;;;;;;9.90;3.40;;;;;;;;;;105794;1318;22176;-87
2022/10/30 11:05:12;;;;;;;11.60;3.40;;;;;;;;;;105648;1318;22041;-87
2022/10/30 11:07:44;;;;;;;12.30;3.60;;;;;;;;;;105817;1304;21701;-87
2022/10/30 11:10:13;;;;;;;10.50;3.60;;;;;;;;;;105613;1321;22089;-89
2022/10/30 11:12:40;;;;;;;10.40;3.60;;;;;;;;;;105623;1319;22354;-84
2022/10/30 11:15:16;;;;;;;9.90;3.30;;;;;;;;;;105639;1321;22126;-87
2022/10/30 11:18:04;;;;;;;11.50;3.40;;;;;;;;;;105782;1321;22151;-86
2022/10/30 11:20:47;;;;;;;9.50;3.20;;;;;;;;;;106301;1313;22112;-85
2022/10/30 11:23:33;;;;;;;11.60;3.20;;;;;;;;;;106223;1307;22840;-87
2022/10/30 11:26:00;;;;;;;10.40;3.00;;;;;;;;;;106530;1302;22809;-87
2022/10/30 11:28:34;;;;;;;10.10;3.20;;;;;;;;;;106975;1293;22283;-88
2022/10/30 11:31:20;;;;;;;12.00;3.00;;;;;;;;;;106730;1307;21927;-87
2022/10/30 11:33:47;;;;;;;11.10;2.90;;;;;;;;;;107160;1299;22190;-87
2022/10/30 11:36:15;;;;;;;10.80;3.00;;;;;;;;;;106927;1306;22120;-87
2022/10/30 11:38:42;;;;;;;10.40;3.40;;;;;;;;;;106899;1306;22129;-86
2022/10/30 11:41:09;;;;;;;10.10;3.30;;;;;;;;;;106910;1306;22089;-86
2022/10/30 11:43:37;;;;;;;9.40;3.20;;;;;;;;;;106771;1305;22085;-87
2022/10/30 11:46:08;;;;;;;9.30;3.10;;;;;;;;;;106960;1305;22065;-87
2022/10/30 11:48:41;;;;;;;10.00;3.20;;;;;;;;;;106941;1305;22049;-85
2022/10/30 11:51:09;;;;;;;12.90;3.10;;;;;;;;;;106897;1307;22075;-87
2022/10/30 11:53:38;;;;;;;10.70;3.60;;;;;;;;;;106910;1292;22356;-86
2022/10/30 11:56:16;;;;;;;11.60;3.40;;;;;;;;;;106744;1303;22091;-87
2022/10/30 11:58:44;;;;;;;12.40;3.80;;;;;;;;;;107144;1285;22751;-87
2022/10/30 12:01:16;;;;;;;11.10;3.60;;;;;;;;;;107074;1294;22042;-85
2022/10/30 12:03:43;;;;;;;11.00;3.80;;;;;;;;;;106925;1307;22707;-86
2022/10/30 12:06:15;;;;;;;14.30;3.70;;;;;;;;;;106985;1300;21981;-86
2022/10/30 12:08:56;;;;;;;11.70;3.60;;;;;;;;;;106764;1302;22109;-87
2022/10/30 12:11:27;;;;;;;12.00;3.30;;;;;;;;;;106939;1307;22073;-86
2022/10/30 12:13:54;;;;;;;11.50;3.70;;;;;;;;;;106881;1307;23168;-86
2022/10/30 12:16:21;;;;;;;11.10;3.40;;;;;;;;;;106680;1303;21955;-87
2022/10/30 12:18:55;;;;;;;10.50;3.50;;;;;;;;;;107159;1299;22107;-87
2022/10/30 12:21:23;;;;;;;12.70;3.70;;;;;;;;;;106740;1307;22086;-87
2022/10/30 12:23:53;;;;;;;11.80;3.70;;;;;;;;;;106935;1307;21688;-87
2022/10/30 12:26:21;;;;;;;12.20;3.30;;;;;;;;;;106880;1306;22267;-87
2022/10/30 12:28:54;;;;;;;9.50;3.30;;;;;;;;;;107165;1283;22066;-87
2022/10/30 12:31:24;;;;;;;11.80;3.40;;;;;;;;;;106759;1302;22058;-86
2022/10/30 12:33:51;;;;;;;10.20;3.50;;;;;;;;;;107040;1294;22100;-86
2022/10/30 12:36:20;;;;;;;11.90;3.40;;;;;;;;;;107080;1288;22725;-86
2022/10/30 12:39:01;;;;;;;12.30;3.50;;;;;;;;;;106882;1307;22800;-85
2022/10/30 12:41:57;;;;;;;11.00;3.40;;;;;;;;;;106924;1307;21943;-87
2022/10/30 12:44:27;;;;;;;9.60;3.70;;;;;;;;;;106788;1306;22638;-85
2022/10/30 12:47:00;;;;;;;12.20;3.80;;;;;;;;;;106706;1307;22867;-86
2022/10/30 12:49:41;;;;;;;11.10;3.70;;;;;;;;;;106932;1299;22095;-87
2022/10/30 12:52:17;;;;;;;12.30;3.60;;;;;;;;;;107131;1287;22854;-87
2022/10/30 12:54:46;;;;;;;12.50;3.90;;;;;;;;;;107131;1281;22949;-88
2022/10/30 12:57:15;;;;;;;11.70;3.50;;;;;;;;;;106942;1300;22075;-87
2022/10/30 12:59:50;;;;;;;11.70;4.00;;;;;;;;;;106754;1307;22095;-86
2022/10/30 13:02:36;;;;;;;13.50;3.60;;;;;;;;;;106928;1307;22040;-86
2022/10/30 13:05:06;;;;;;;9.40;3.40;;;;;;;;;;106854;1294;22413;-86
2022/10/30 13:07:40;;;;;;;13.00;3.80;;;;;;;;;;106680;1305;21996;-87
2022/10/30 13:10:24;;;;;;;11.00;3.60;;;;;;;;;;107115;1288;21954;-86
2022/10/30 13:12:55;;;;;;;12.40;4.30;;;;;;;;;;106835;1302;22058;-86
2022/10/30 13:15:30;;;;;;;12.90;3.60;;;;;;;;;;106699;1300;22355;-86
2022/10/30 13:17:59;;;;;;;9.80;3.80;;;;;;;;;;106861;1304;22073;-87
2022/10/30 13:20:28;;;;;;;11.80;3.60;;;;;;;;;;107116;1291;22159;-86
2022/10/30 13:22:59;;;;;;;9.90;3.30;;;;;;;;;;106780;1308;22731;-88
2022/10/30 13:25:30;;;;;;;11.50;4.10;;;;;;;;;;106838;1307;22316;-87
2022/10/30 13:28:13;;;;;;;11.30;3.40;;;;;;;;;;106756;1307;22577;-86
2022/10/30 13:30:45;;;;;;;14.10;4.20;;;;;;;;;;106911;1307;22578;-86
2022/10/30 13:33:13;;;;;;;9.90;3.70;;;;;;;;;;106870;1307;22135;-87
2022/10/30 13:35:48;;;;;;;12.90;4.40;;;;;;;;;;106804;1307;22465;-87
2022/10/30 13:38:37;;;;;;;12.90;4.30;;;;;;;;;;106655;1307;22772;-83
2022/10/30 13:41:14;;;;;;;10.50;3.80;;;;;;;;;;106680;1309;22104;-86
2022/10/30 13:44:17;;;;;;;10.80;3.30;;;;;;;;;;106860;1307;22111;-85
2022/10/30 13:46:45;;;;;;;11.50;3.90;;;;;;;;;;106368;1307;22136;-86
2022/10/30 13:49:22;;;;;;;10.80;3.80;;;;;;;;;;106616;1306;22115;-85
2022/10/30 13:51:54;;;;;;;14.40;4.50;;;;;;;;;;106657;1286;22095;-85
2022/10/30 13:54:22;;;;;;;11.80;3.90;;;;;;;;;;106397;1306;22104;-86
2022/10/30 13:56:49;;;;;;;15.20;3.60;;;;;;;;;;106218;1301;22103;-85
2022/10/30 13:59:20;;;;;;;10.10;3.60;;;;;;;;;;106405;1308;22665;-86
2022/10/30 14:02:05;;;;;;;14.00;3.70;;;;;;;;;;106658;1300;22163;-87
2022/10/30 14:04:37;;;;;;;11.30;4.00;;;;;;;;;;106416;1314;21936;-85
2022/10/30 14:07:05;;;;;;;10.80;4.00;;;;;;;;;;106367;1314;22972;-85
2022/10/30 14:09:59;;;;;;;11.30;4.20;;;;;;;;;;106368;1313;22969;-83
2022/10/30 14:12:49;;;;;;;13.60;4.10;;;;;;;;;;106124;1314;22105;-83
2022/10/30 14:15:46;;;;;;;11.70;4.10;;;;;;;;;;106156;1315;22802;-80
2022/10/30 14:18:23;;;;;;;14.10;3.80;;;;;;;;;;106229;1302;22291;-83
2022/10/30 14:20:53;;;;;;;12.80;3.90;;;;;;;;;;106410;1309;22737;-82
2022/10/30 14:23:39;;;;;;;10.70;3.80;;;;;;;;;;106717;1309;22031;-83
2022/10/30 14:26:12;;;;;;;16.20;4.40;;;;;;;;;;106722;1309;22050;-81
2022/10/30 14:28:46;;;;;;;14.80;5.30;;;;;;;;;;106714;1309;22081;-81
2022/10/30 14:31:16;;;;;;;18.80;5.90;;;;;;;;;;106730;1310;22671;-82
2022/10/30 14:33:47;;;;;;;13.60;5.40;;;;;;;;;;106601;1310;22476;-82
2022/10/30 14:36:42;;;;;;;12.40;4.20;;;;;;;;;;106639;1310;22059;-83
2022/10/30 14:39:30;;;;;;;11.80;4.60;;;;;;;;;;106703;1309;22068;-84
2022/10/30 14:42:00;;;;;;;15.90;4.60;;;;;;;;;;106775;1308;22661;-82
2022/10/30 14:44:39;;;;;;;13.30;4.60;;;;;;;;;;106683;1310;22284;-83
2022/10/30 14:47:24;;;;;;;11.10;3.90;;;;;;;;;;106687;1310;23028;-82
2022/10/30 14:50:14;;;;;;;10.60;4.50;;;;;;;;;;106730;1310;21977;-83
2022/10/30 14:52:46;;;;;;;12.80;4.50;;;;;;;;;;106930;1302;22111;-83
2022/10/30 14:55:42;;;;;;;12.60;4.70;;;;;;;;;;106625;1310;22100;-83
2022/10/30 14:58:23;;;;;;;10.70;4.60;;;;;;;;;;106726;1308;21963;-83
2022/10/30 15:01:11;;;;;;;14.40;5.10;;;;;;;;;;106740;1310;22076;-84